createdAt,value
2023-05-08T00:01:53.585Z,12.90
2023-05-08T00:04:20.856Z,12.90
2023-05-08T00:06:48.469Z,12.90
2023-05-08T00:09:15.706Z,12.90
2023-05-08T00:11:42.587Z,12.90
2023-05-08T00:14:09.411Z,12.80
2023-05-08T00:16:37.431Z,12.90
2023-05-08T00:19:04.423Z,12.80
2023-05-08T00:21:31.448Z,12.80
2023-05-08T00:23:58.712Z,12.80
2023-05-08T00:26:26.742Z,12.70
2023-05-08T00:28:54.291Z,12.70
2023-05-08T00:31:21.169Z,12.70
2023-05-08T00:33:48.349Z,12.70
2023-05-08T00:36:15.993Z,12.70
2023-05-08T00:38:42.968Z,12.70
2023-05-08T00:41:09.859Z,12.70
2023-05-08T00:43:37.829Z,12.60
2023-05-08T00:46:05.641Z,12.60
2023-05-08T00:48:34.943Z,12.60
2023-05-08T00:51:05.122Z,12.60
2023-05-08T00:53:37.903Z,12.60
2023-05-08T00:56:06.427Z,12.60
2023-05-08T00:58:33.720Z,12.50
2023-05-08T01:01:02.728Z,12.50
2023-05-08T01:03:31.287Z,12.50
2023-05-08T01:05:58.522Z,12.50
2023-05-08T01:08:25.773Z,12.40
2023-05-08T01:11:08.308Z,12.40
2023-05-08T01:14:19.613Z,12.40
2023-05-08T01:17:10.952Z,12.40
2023-05-08T01:19:55.244Z,12.30
2023-05-08T01:22:53.976Z,12.30
2023-05-08T01:25:44.379Z,12.30
2023-05-08T01:28:32.614Z,12.20
2023-05-08T01:31:11.625Z,12.20
2023-05-08T01:34:09.096Z,12.20
2023-05-08T01:37:01.233Z,12.20
2023-05-08T01:39:51.372Z,12.20
2023-05-08T01:42:50.399Z,12.20
2023-05-08T01:45:29.271Z,12.20
2023-05-08T01:48:06.842Z,12.10
2023-05-08T01:50:38.422Z,12.10
2023-05-08T01:53:17.740Z,12.10
2023-05-08T01:55:48.672Z,12.10
2023-05-08T01:58:16.252Z,12.10
2023-05-08T02:00:45.676Z,12.00
2023-05-08T02:03:16.060Z,12.00
2023-05-08T02:05:43.952Z,12.00
2023-05-08T02:08:14.218Z,11.90
2023-05-08T02:10:43.574Z,11.90
2023-05-08T02:13:11.923Z,11.90
2023-05-08T02:15:41.507Z,11.90
2023-05-08T02:18:13.025Z,11.90
2023-05-08T02:20:40.604Z,11.90
2023-05-08T02:23:08.713Z,11.90
2023-05-08T02:25:36.502Z,11.90
2023-05-08T02:28:04.430Z,11.90
2023-05-08T02:30:31.624Z,11.80
2023-05-08T02:33:00.770Z,11.80
2023-05-08T02:35:29.761Z,11.80
2023-05-08T02:37:59.193Z,11.80
2023-05-08T02:40:29.386Z,11.80
2023-05-08T02:42:57.920Z,11.80
2023-05-08T02:45:29.912Z,11.80
2023-05-08T02:48:09.230Z,11.80
2023-05-08T02:50:38.594Z,11.80
2023-05-08T02:53:11.552Z,11.70
2023-05-08T02:55:50.810Z,11.70
2023-05-08T02:58:25.014Z,11.70
2023-05-08T03:01:07.421Z,11.70
2023-05-08T03:03:44.940Z,11.70
2023-05-08T03:06:19.689Z,11.70
2023-05-08T03:08:49.417Z,11.80
2023-05-08T03:11:21.793Z,11.80
2023-05-08T03:13:50.341Z,11.80
2023-05-08T03:16:23.305Z,11.90
2023-05-08T03:18:55.023Z,11.90
2023-05-08T03:21:24.439Z,11.90
2023-05-08T03:23:54.137Z,11.90
2023-05-08T03:26:22.554Z,12.00
2023-05-08T03:28:51.240Z,12.00
2023-05-08T03:31:21.493Z,12.00
2023-05-08T03:33:51.882Z,12.00
2023-05-08T03:36:19.440Z,12.00
2023-05-08T03:38:47.123Z,12.00
2023-05-08T03:41:14.573Z,12.00
2023-05-08T03:43:41.950Z,12.00
2023-05-08T03:46:09.968Z,12.00
2023-05-08T03:48:38.923Z,11.90
2023-05-08T03:51:05.907Z,11.90
2023-05-08T03:53:33.373Z,11.90
2023-05-08T03:56:04.241Z,11.80
2023-05-08T03:59:17.116Z,11.80
2023-05-08T04:02:09.285Z,11.80
2023-05-08T04:04:41.034Z,11.80
2023-05-08T04:07:14.076Z,11.80
2023-05-08T04:09:49.753Z,11.80
2023-05-08T04:12:20.783Z,11.80
2023-05-08T04:14:57.059Z,11.80
2023-05-08T04:17:36.046Z,11.80
2023-05-08T04:20:10.414Z,11.70
2023-05-08T04:22:40.503Z,11.70
2023-05-08T04:25:09.053Z,11.70
2023-05-08T04:27:37.438Z,11.70
2023-05-08T04:30:05.317Z,11.70
2023-05-08T04:32:35.013Z,11.70
2023-05-08T04:35:03.279Z,11.60
2023-05-08T04:37:50.910Z,11.70
2023-05-08T04:40:18.237Z,11.60
2023-05-08T04:42:47.532Z,11.70
2023-05-08T04:45:15.032Z,11.70
2023-05-08T04:47:43.006Z,11.70
2023-05-08T04:50:10.785Z,11.70
2023-05-08T04:52:37.879Z,11.70
2023-05-08T04:55:05.243Z,11.70
2023-05-08T04:57:34.242Z,11.80
2023-05-08T05:00:04.985Z,11.80
2023-05-08T05:02:32.214Z,11.90
2023-05-08T05:05:01.498Z,12.00
2023-05-08T05:07:28.523Z,12.10
2023-05-08T05:09:55.469Z,12.20
2023-05-08T05:12:22.378Z,12.30
2023-05-08T05:14:49.162Z,12.40
2023-05-08T05:17:16.352Z,12.50
2023-05-08T05:19:43.206Z,12.60
2023-05-08T05:22:10.122Z,12.70
2023-05-08T05:24:39.590Z,12.80
2023-05-08T05:27:06.511Z,12.90
2023-05-08T05:29:34.887Z,13.10
2023-05-08T05:32:03.571Z,13.20
2023-05-08T05:34:30.484Z,13.30
2023-05-08T05:36:57.342Z,13.30
2023-05-08T05:39:24.254Z,13.40
2023-05-08T05:41:53.795Z,13.40
2023-05-08T05:44:20.781Z,13.50
2023-05-08T05:46:47.659Z,13.40
2023-05-08T05:49:14.516Z,13.50
2023-05-08T05:51:41.665Z,13.50
2023-05-08T05:54:08.502Z,13.60
2023-05-08T05:56:35.443Z,13.60
2023-05-08T05:59:02.232Z,13.70
2023-05-08T06:01:29.227Z,13.80
2023-05-08T06:03:56.221Z,13.90
2023-05-08T06:06:23.186Z,14.00
2023-05-08T06:08:50.004Z,14.10
2023-05-08T06:11:17.193Z,14.20
2023-05-08T06:13:44.442Z,14.30
2023-05-08T06:16:14.231Z,14.40
2023-05-08T06:18:41.440Z,14.60
2023-05-08T06:21:08.277Z,14.60
2023-05-08T06:23:35.090Z,14.70
2023-05-08T06:26:01.967Z,14.70
2023-05-08T06:28:29.214Z,15.00
2023-05-08T06:30:56.344Z,15.10
2023-05-08T06:33:25.434Z,15.20
2023-05-08T06:35:53.699Z,15.30
2023-05-08T06:38:21.057Z,15.70
2023-05-08T06:40:50.128Z,15.80
2023-05-08T06:43:17.251Z,16.10
2023-05-08T06:45:45.091Z,16.10
2023-05-08T06:48:11.934Z,16.30
2023-05-08T06:50:39.614Z,16.60
2023-05-08T06:53:07.483Z,16.80
2023-05-08T06:55:35.063Z,16.80
2023-05-08T06:58:04.013Z,16.80
2023-05-08T07:00:31.070Z,16.80
2023-05-08T07:02:58.753Z,16.80
2023-05-08T07:05:26.819Z,16.90
2023-05-08T07:07:56.795Z,16.70
2023-05-08T07:10:24.204Z,16.60
2023-05-08T07:12:51.362Z,16.50
2023-05-08T07:15:26.135Z,16.50
2023-05-08T07:17:54.411Z,16.60
2023-05-08T07:20:21.894Z,16.60
2023-05-08T07:22:48.984Z,16.70
2023-05-08T07:25:17.078Z,16.70
2023-05-08T07:27:44.176Z,16.80
2023-05-08T07:30:12.153Z,17.00
2023-05-08T07:32:39.582Z,17.20
2023-05-08T07:35:10.978Z,17.30
2023-05-08T07:37:39.040Z,17.40
2023-05-08T07:40:06.721Z,17.30
2023-05-08T07:42:40.193Z,17.30
2023-05-08T07:45:08.860Z,17.20
2023-05-08T07:47:36.077Z,17.30
2023-05-08T07:50:03.684Z,17.30
2023-05-08T07:52:30.711Z,17.40
2023-05-08T07:54:58.648Z,17.40
2023-05-08T07:57:25.525Z,17.50
2023-05-08T07:59:52.541Z,17.60
2023-05-08T08:02:19.510Z,17.60
2023-05-08T08:04:46.352Z,17.60
2023-05-08T08:07:13.199Z,17.60
2023-05-08T08:09:40.123Z,17.60
2023-05-08T08:12:07.226Z,17.60
2023-05-08T08:14:37.536Z,17.60
2023-05-08T08:17:04.439Z,17.60
2023-05-08T08:19:31.402Z,17.60
2023-05-08T08:21:58.575Z,17.70
2023-05-08T08:24:25.792Z,17.70
2023-05-08T08:26:52.737Z,17.80
2023-05-08T08:29:24.319Z,17.80
2023-05-08T08:31:51.501Z,17.80
2023-05-08T08:34:18.967Z,17.90
2023-05-08T08:36:46.797Z,17.80
2023-05-08T08:39:17.198Z,17.90
2023-05-08T08:41:44.219Z,18.00
2023-05-08T08:44:11.126Z,18.00
2023-05-08T08:46:44.210Z,18.00
2023-05-08T08:49:17.702Z,18.10
2023-05-08T08:51:52.930Z,18.20
2023-05-08T08:54:25.225Z,18.20
2023-05-08T08:56:53.490Z,18.30
2023-05-08T08:59:23.301Z,18.30
2023-05-08T09:01:55.475Z,18.30
2023-05-08T09:04:22.762Z,18.30
2023-05-08T09:06:51.163Z,18.40
2023-05-08T09:09:18.008Z,18.50
2023-05-08T09:11:46.669Z,18.60
2023-05-08T09:14:13.506Z,18.80
2023-05-08T09:16:40.785Z,18.90
2023-05-08T09:19:08.329Z,18.80
2023-05-08T09:21:37.784Z,18.80
2023-05-08T09:24:06.783Z,18.90
2023-05-08T09:26:43.052Z,19.10
2023-05-08T09:29:22.344Z,19.30
2023-05-08T09:31:51.153Z,19.40
2023-05-08T09:34:28.902Z,19.50
2023-05-08T09:37:12.643Z,19.70
2023-05-08T09:39:43.792Z,19.80
2023-05-08T09:42:10.898Z,19.90
2023-05-08T09:44:54.142Z,20.00
2023-05-08T09:47:23.154Z,20.10
2023-05-08T09:50:09.527Z,20.30
2023-05-08T09:52:38.514Z,20.40
2023-05-08T09:55:11.788Z,20.60
2023-05-08T09:57:41.061Z,20.70
2023-05-08T10:00:13.075Z,20.70
2023-05-08T10:02:42.028Z,20.60
2023-05-08T10:07:44.416Z,20.60
2023-05-08T10:10:11.572Z,20.50
2023-05-08T10:12:42.080Z,20.50
2023-05-08T10:15:10.633Z,20.50
2023-05-08T10:18:17.793Z,20.60
2023-05-08T10:24:20.428Z,20.80
2023-05-08T10:27:28.195Z,20.90
2023-05-08T10:29:57.034Z,21.10
2023-05-08T10:32:25.091Z,21.10
2023-05-08T10:35:00.256Z,21.10
2023-05-08T10:37:30.257Z,21.00
2023-05-08T10:39:59.956Z,21.00
2023-05-08T10:42:28.588Z,21.00
2023-05-08T10:44:56.129Z,20.90
2023-05-08T10:47:47.633Z,20.80
2023-05-08T10:50:29.242Z,20.80
2023-05-08T10:53:07.977Z,20.90
2023-05-08T10:55:37.660Z,20.90
2023-05-08T10:58:06.394Z,21.00
2023-05-08T11:00:54.307Z,20.90
2023-05-08T11:03:45.094Z,21.10
2023-05-08T11:07:18.925Z,21.20
2023-05-08T11:09:51.526Z,21.30
2023-05-08T11:12:27.509Z,21.30
2023-05-08T11:15:05.362Z,21.40
2023-05-08T11:17:35.341Z,21.60
2023-05-08T11:20:05.458Z,21.90
2023-05-08T11:22:37.134Z,22.10
2023-05-08T11:25:09.384Z,22.30
2023-05-08T11:27:39.332Z,22.20
2023-05-08T11:30:22.342Z,21.90
2023-05-08T11:33:05.003Z,21.70
2023-05-08T11:35:41.582Z,21.40
2023-05-08T11:38:20.012Z,21.40
2023-05-08T11:40:56.017Z,21.50
2023-05-08T11:43:55.463Z,21.80
2023-05-08T11:46:22.495Z,22.10
2023-05-08T11:48:49.724Z,22.20
2023-05-08T11:51:22.600Z,22.30
2023-05-08T11:53:49.716Z,22.30
2023-05-08T11:56:16.618Z,22.30
2023-05-08T11:58:44.200Z,22.20
2023-05-08T12:01:11.167Z,22.30
2023-05-08T12:03:39.609Z,22.60
2023-05-08T12:06:08.172Z,22.90
2023-05-08T12:08:42.433Z,23.10
2023-05-08T12:11:10.090Z,23.20
2023-05-08T12:13:36.989Z,23.30
2023-05-08T12:16:04.460Z,23.50
2023-05-08T12:18:36.493Z,24.40
2023-05-08T12:21:04.869Z,25.40
2023-05-08T12:23:31.844Z,25.40
2023-05-08T12:26:00.831Z,25.10
2023-05-08T12:28:28.972Z,24.80
2023-05-08T12:30:56.536Z,24.50
2023-05-08T12:33:24.091Z,25.10
2023-05-08T12:35:51.552Z,25.90
2023-05-08T12:38:19.900Z,26.00
2023-05-08T12:40:53.109Z,26.10
2023-05-08T12:43:20.458Z,26.10
2023-05-08T12:45:51.571Z,25.90
2023-05-08T12:48:19.398Z,25.60
2023-05-08T12:50:46.766Z,26.10
2023-05-08T12:53:16.290Z,26.80
2023-05-08T12:55:57.553Z,26.80
2023-05-08T12:58:31.634Z,26.30
2023-05-08T13:01:13.836Z,25.80
2023-05-08T13:03:41.766Z,25.50
2023-05-08T13:06:21.030Z,25.50
2023-05-08T13:08:55.391Z,25.60
2023-05-08T13:11:33.366Z,25.80
2023-05-08T13:14:00.965Z,25.90
2023-05-08T13:16:33.075Z,26.00
2023-05-08T13:19:00.604Z,26.00
2023-05-08T13:21:28.045Z,26.40
2023-05-08T13:23:56.816Z,27.00
2023-05-08T13:26:25.636Z,27.30
2023-05-08T13:28:54.677Z,27.10
2023-05-08T13:31:23.405Z,26.80
2023-05-08T13:33:50.642Z,26.40
2023-05-08T13:36:17.578Z,26.00
2023-05-08T13:38:44.573Z,25.60
2023-05-08T13:41:11.549Z,25.40
2023-05-08T13:43:39.300Z,25.20
2023-05-08T13:46:07.155Z,25.00
2023-05-08T13:48:34.153Z,25.00
2023-05-08T13:51:06.177Z,24.80
2023-05-08T13:53:33.185Z,24.60
2023-05-08T13:56:00.860Z,24.40
2023-05-08T13:58:31.111Z,24.40
2023-05-08T14:00:59.291Z,24.30
2023-05-08T14:03:28.513Z,24.30
2023-05-08T14:05:55.477Z,24.30
2023-05-08T14:08:22.473Z,24.30
2023-05-08T14:10:51.971Z,24.30
2023-05-08T14:13:34.028Z,24.30
2023-05-08T14:16:08.205Z,24.50
2023-05-08T14:18:35.480Z,24.60
2023-05-08T14:21:02.849Z,24.70
2023-05-08T14:23:29.786Z,24.80
2023-05-08T14:25:56.692Z,24.90
2023-05-08T14:28:26.589Z,25.00
2023-05-08T14:30:53.562Z,25.10
2023-05-08T14:33:21.384Z,25.20
2023-05-08T14:35:48.467Z,25.40
2023-05-08T14:38:15.612Z,25.50
2023-05-08T14:40:42.965Z,25.50
2023-05-08T14:43:10.203Z,25.40
2023-05-08T14:45:37.513Z,25.50
2023-05-08T14:48:04.652Z,25.40
2023-05-08T14:50:31.530Z,25.20
2023-05-08T14:52:58.863Z,25.10
2023-05-08T14:55:26.496Z,24.90
2023-05-08T14:57:53.487Z,24.80
2023-05-08T15:00:22.186Z,24.60
2023-05-08T15:02:49.404Z,24.40
2023-05-08T15:05:19.865Z,24.30
2023-05-08T15:07:48.053Z,24.10
2023-05-08T15:10:15.012Z,24.10
2023-05-08T15:12:41.953Z,24.00
2023-05-08T15:15:09.030Z,24.00
2023-05-08T15:17:36.662Z,23.90
2023-05-08T15:20:04.773Z,23.90
2023-05-08T15:22:31.742Z,23.70
2023-05-08T15:25:02.564Z,23.70
2023-05-08T15:27:30.161Z,23.50
2023-05-08T15:29:57.592Z,23.50
2023-05-08T15:32:25.115Z,23.50
2023-05-08T15:34:52.824Z,23.50
2023-05-08T15:37:19.682Z,23.60
2023-05-08T15:39:46.658Z,23.60
2023-05-08T15:42:13.528Z,23.60
2023-05-08T15:44:54.734Z,23.60
2023-05-08T15:47:23.354Z,23.50
2023-05-08T15:49:51.656Z,23.40
2023-05-08T15:52:19.856Z,23.30
2023-05-08T15:54:47.664Z,23.20
2023-05-08T15:57:15.046Z,23.10
2023-05-08T15:59:41.989Z,23.00
2023-05-08T16:02:09.972Z,23.00
2023-05-08T16:04:36.918Z,22.90
2023-05-08T16:07:08.548Z,22.80
2023-05-08T16:09:35.567Z,22.70
2023-05-08T16:12:02.964Z,22.60
2023-05-08T16:14:29.839Z,22.60
2023-05-08T16:16:59.717Z,22.50
2023-05-08T16:19:27.112Z,22.50
2023-05-08T16:21:55.137Z,22.40
2023-05-08T16:24:22.095Z,22.30
2023-05-08T16:26:49.006Z,22.30
2023-05-08T16:29:15.831Z,22.20
2023-05-08T16:31:42.735Z,22.10
2023-05-08T16:34:12.078Z,22.00
2023-05-08T16:36:39.080Z,21.90
2023-05-08T16:39:06.058Z,21.90
2023-05-08T16:41:33.043Z,21.90
2023-05-08T16:44:01.633Z,21.90
2023-05-08T16:46:30.308Z,22.10
2023-05-08T16:48:57.746Z,22.10
2023-05-08T16:51:24.753Z,22.20
2023-05-08T16:53:52.208Z,22.30
2023-05-08T16:56:19.313Z,22.30
2023-05-08T16:58:46.400Z,22.30
2023-05-08T17:01:14.356Z,22.30
2023-05-08T17:03:41.787Z,22.30
2023-05-08T17:06:09.141Z,22.30
2023-05-08T17:08:37.145Z,22.20
2023-05-08T17:11:04.420Z,22.20
2023-05-08T17:13:31.568Z,22.10
2023-05-08T17:15:58.551Z,21.90
2023-05-08T17:18:26.513Z,21.80
2023-05-08T17:20:54.965Z,21.60
2023-05-08T17:23:22.245Z,21.50
2023-05-08T17:25:56.806Z,21.40
2023-05-08T17:28:23.770Z,21.20
2023-05-08T17:30:51.066Z,21.10
2023-05-08T17:33:18.677Z,20.90
2023-05-08T17:35:45.793Z,20.80
2023-05-08T17:38:12.667Z,20.70
2023-05-08T17:40:41.008Z,20.60
2023-05-08T17:43:08.869Z,20.50
2023-05-08T17:45:36.648Z,20.40
2023-05-08T17:48:04.743Z,20.30
2023-05-08T17:50:31.756Z,20.20
2023-05-08T17:52:59.743Z,20.20
2023-05-08T17:55:27.073Z,20.00
2023-05-08T17:57:54.228Z,20.00
2023-05-08T18:00:23.021Z,19.90
2023-05-08T18:02:51.990Z,19.90
2023-05-08T18:05:22.499Z,19.80
2023-05-08T18:07:50.478Z,19.80
2023-05-08T18:10:17.609Z,19.70
2023-05-08T18:12:44.992Z,19.70
2023-05-08T18:15:17.248Z,19.60
2023-05-08T18:17:44.324Z,19.50
2023-05-08T18:20:12.675Z,19.50
2023-05-08T18:22:48.207Z,19.40
2023-05-08T18:25:36.983Z,19.40
2023-05-08T18:28:08.568Z,19.30
2023-05-08T18:30:44.428Z,19.30
2023-05-08T18:33:11.408Z,19.20
2023-05-08T18:35:38.754Z,19.10
2023-05-08T18:38:06.530Z,19.00
2023-05-08T18:40:36.226Z,19.00
2023-05-08T18:43:03.386Z,18.90
2023-05-08T18:45:31.336Z,18.80
2023-05-08T18:47:59.445Z,18.80
2023-05-08T18:50:39.829Z,18.70
2023-05-08T18:53:11.032Z,18.70
2023-05-08T18:55:43.352Z,18.60
2023-05-08T18:58:11.364Z,18.60
2023-05-08T19:00:39.482Z,18.50
2023-05-08T19:03:09.573Z,18.40
2023-05-08T19:05:36.507Z,18.30
2023-05-08T19:08:03.608Z,18.20
2023-05-08T19:10:30.503Z,18.20
2023-05-08T19:12:58.322Z,18.10
2023-05-08T19:15:27.486Z,18.00
2023-05-08T19:17:57.190Z,17.90
2023-05-08T19:20:24.521Z,17.80
2023-05-08T19:22:52.750Z,17.70
2023-05-08T19:25:19.966Z,17.70
2023-05-08T19:27:47.233Z,17.60
2023-05-08T19:30:15.338Z,17.50
2023-05-08T19:32:42.746Z,17.40
2023-05-08T19:35:09.970Z,17.40
2023-05-08T19:37:38.617Z,17.30
2023-05-08T19:40:07.970Z,17.30
2023-05-08T19:42:35.144Z,17.20
2023-05-08T19:45:02.003Z,17.10
2023-05-08T19:47:29.225Z,17.00
2023-05-08T19:49:56.184Z,17.00
2023-05-08T19:52:23.119Z,16.90
2023-05-08T19:54:52.709Z,16.80
2023-05-08T19:57:19.632Z,16.80
2023-05-08T19:59:47.986Z,16.70
2023-05-08T20:02:14.872Z,16.60
2023-05-08T20:05:10.476Z,16.60
2023-05-08T20:07:31.221Z,16.50
2023-05-08T20:09:58.039Z,16.50
2023-05-08T20:12:24.983Z,16.50
2023-05-08T20:14:53.659Z,16.40
2023-05-08T20:17:22.101Z,16.40
2023-05-08T20:19:49.015Z,16.40
2023-05-08T20:22:16.343Z,16.40
2023-05-08T20:24:43.405Z,16.30
2023-05-08T20:27:10.418Z,16.30
2023-05-08T20:29:37.542Z,16.30
2023-05-08T20:32:08.310Z,16.30
2023-05-08T20:34:35.449Z,16.40
2023-05-08T20:37:03.857Z,16.40
2023-05-08T20:39:30.777Z,16.40
2023-05-08T20:41:57.586Z,16.50
2023-05-08T20:44:24.586Z,16.60
2023-05-08T20:46:51.869Z,16.60
2023-05-08T20:49:18.807Z,16.60
2023-05-08T20:51:45.703Z,16.60
2023-05-08T20:54:12.518Z,16.50
2023-05-08T20:56:39.380Z,16.50
2023-05-08T20:59:07.669Z,16.50
2023-05-08T21:01:34.575Z,16.40
2023-05-08T21:04:01.505Z,16.40
2023-05-08T21:06:28.434Z,16.30
2023-05-08T21:08:55.376Z,16.30
2023-05-08T21:11:22.304Z,16.30
2023-05-08T21:13:50.275Z,16.30
2023-05-08T21:16:17.562Z,16.30
2023-05-08T21:18:44.440Z,16.20
2023-05-08T21:21:18.776Z,16.20
2023-05-08T21:23:45.989Z,16.20
2023-05-08T21:26:13.201Z,16.20
2023-05-08T21:28:40.125Z,16.10
2023-05-08T21:31:07.038Z,16.10
2023-05-08T21:33:34.330Z,16.10
2023-05-08T21:36:01.501Z,16.00
2023-05-08T21:38:28.442Z,16.00
2023-05-08T21:40:55.741Z,15.90
2023-05-08T21:43:22.632Z,15.90
2023-05-08T21:45:49.622Z,15.90
2023-05-08T21:48:16.421Z,15.80
2023-05-08T21:50:44.711Z,15.80
2023-05-08T21:53:11.727Z,15.70
2023-05-08T21:55:38.713Z,15.70
2023-05-08T21:58:05.767Z,15.70
2023-05-08T22:00:34.257Z,15.70
2023-05-08T22:03:01.440Z,15.70
2023-05-08T22:05:28.454Z,15.70
2023-05-08T22:07:55.303Z,15.70
2023-05-08T22:10:22.691Z,15.70
2023-05-08T22:12:50.605Z,15.60
2023-05-08T22:15:28.958Z,15.60
2023-05-08T22:17:57.160Z,15.60
2023-05-08T22:20:24.359Z,15.60
2023-05-08T22:22:52.731Z,15.60
2023-05-08T22:25:22.095Z,15.60
2023-05-08T22:27:49.117Z,15.60
2023-05-08T22:30:16.202Z,15.60
2023-05-08T22:32:43.441Z,15.60
2023-05-08T22:35:10.562Z,15.60
2023-05-08T22:37:37.388Z,15.50
2023-05-08T22:40:05.577Z,15.50
2023-05-08T22:42:32.513Z,15.40
2023-05-08T22:44:59.339Z,15.40
2023-05-08T22:47:26.402Z,15.40
2023-05-08T22:49:53.921Z,15.40
2023-05-08T22:52:22.185Z,15.40
2023-05-08T22:54:48.991Z,15.40
2023-05-08T22:57:15.880Z,15.40
2023-05-08T22:59:42.828Z,15.30
2023-05-08T23:02:09.802Z,15.40
2023-05-08T23:04:37.645Z,15.30
2023-05-08T23:07:07.686Z,15.30
2023-05-08T23:09:34.597Z,15.30
2023-05-08T23:12:03.765Z,15.30
2023-05-08T23:14:30.804Z,15.30
2023-05-08T23:16:57.785Z,15.30
2023-05-08T23:19:25.596Z,15.30
2023-05-08T23:21:52.572Z,15.20
2023-05-08T23:24:20.035Z,15.20
2023-05-08T23:26:51.755Z,15.20
2023-05-08T23:29:18.602Z,15.20
2023-05-08T23:31:45.753Z,15.20
2023-05-08T23:34:12.808Z,15.10
2023-05-08T23:36:39.630Z,15.10
2023-05-08T23:39:07.294Z,15.10
2023-05-08T23:41:34.299Z,15.10
2023-05-08T23:44:02.469Z,15.10
2023-05-08T23:46:29.425Z,15.10
2023-05-08T23:48:56.701Z,15.10
2023-05-08T23:51:23.745Z,15.10
2023-05-08T23:53:51.084Z,15.10
2023-05-08T23:56:17.896Z,15.10
2023-05-08T23:58:44.892Z,15.00
